Southwold, United Kingdom
Current Conditions -  °F | °C
As of 7:20 PM on Thursday 27 Nov 2014 (Local Time) from EGSD Reporting Station
Broken Clouds Broken Clouds  
Wind Chill: 12°   Ceiling: 1400
Heat Index: 12°   Visibility: 6mi
Dew Point: 11°   Wind: 7mph
Humidity: 94%   Direction: 120°ESE
Pressure: 29.65"   Gusts: NA
Location:  52.33°N, 1.68°E
Report Text: EGSD 271920Z 12006KT 9999 SCT012 BKN014 12/11 Q1004
Loading
Personal Weather Stations






























Interactive Weather Map New forecast layout! Learn more

10-Day Weather Forecast

Advertisements
Track Severe Weather on mobile